createdAt,value
2022-12-06T00:00:47.979Z,100412.95
2022-12-06T00:03:20.882Z,100408.77
2022-12-06T00:05:53.623Z,100404.42
2022-12-06T00:08:25.655Z,100402.61
2022-12-06T00:10:57.841Z,100400.61
2022-12-06T00:13:30.525Z,100394.00
2022-12-06T00:16:08.384Z,100396.02
2022-12-06T00:18:42.147Z,100389.84
2022-12-06T00:21:17.372Z,100391.75
2022-12-06T00:23:51.362Z,100385.18
2022-12-06T00:26:26.604Z,100383.29
2022-12-06T00:29:01.264Z,100381.48
2022-12-06T00:31:36.345Z,100387.21
2022-12-06T00:34:09.346Z,100378.14
2022-12-06T00:36:43.821Z,100377.88
2022-12-06T00:39:17.992Z,100379.76
2022-12-06T00:41:50.982Z,100381.10
2022-12-06T00:44:24.461Z,100378.98
2022-12-06T00:46:59.182Z,100376.80
2022-12-06T00:49:34.946Z,100378.94
2022-12-06T00:52:07.784Z,100375.17
2022-12-06T00:54:40.378Z,100375.41
2022-12-06T00:57:12.673Z,100373.08
2022-12-06T00:59:44.937Z,100373.92
2022-12-06T01:02:18.844Z,100371.41
2022-12-06T01:04:52.085Z,100370.86
2022-12-06T01:07:24.541Z,100370.41
2022-12-06T01:09:59.559Z,100369.50
2022-12-06T01:12:32.203Z,100357.37
2022-12-06T01:15:04.670Z,100361.05
2022-12-06T01:17:37.092Z,100361.63
2022-12-06T01:20:10.735Z,100358.08
2022-12-06T01:22:42.784Z,100353.09
2022-12-06T01:25:14.969Z,100351.09
2022-12-06T01:27:47.548Z,100345.96
2022-12-06T01:30:19.796Z,100340.95
2022-12-06T01:32:51.893Z,100336.57
2022-12-06T01:35:24.469Z,100333.44
2022-12-06T01:38:06.826Z,100332.25
2022-12-06T01:40:43.238Z,100331.45
2022-12-06T01:43:38.931Z,100326.86
2022-12-06T01:46:21.146Z,100325.98
2022-12-06T01:48:57.078Z,100317.52
2022-12-06T01:51:31.219Z,100312.31
2022-12-06T01:54:06.465Z,100311.80
2022-12-06T01:56:40.089Z,100310.20
2022-12-06T01:59:14.864Z,100311.43
2022-12-06T02:01:45.627Z,100308.73
2022-12-06T02:04:19.509Z,100304.95
2022-12-06T02:06:56.226Z,100301.30
2022-12-06T02:09:30.701Z,100298.91
2022-12-06T02:12:02.129Z,100296.04
2022-12-06T02:14:36.138Z,100292.64
2022-12-06T02:17:33.075Z,100289.16
2022-12-06T02:20:22.517Z,100295.14
2022-12-06T02:23:16.037Z,100293.71
2022-12-06T02:26:17.988Z,100294.23
2022-12-06T02:29:23.931Z,100288.47
2022-12-06T02:31:59.361Z,100290.31
2022-12-06T02:34:41.434Z,100286.38
2022-12-06T02:37:19.402Z,100283.33
2022-12-06T02:39:58.849Z,100279.19
2022-12-06T02:42:36.796Z,100275.66
2022-12-06T02:45:16.737Z,100278.86
2022-12-06T02:47:49.934Z,100275.30
2022-12-06T02:50:26.971Z,100271.34
2022-12-06T02:53:01.978Z,100270.27
2022-12-06T02:55:36.181Z,100274.92
2022-12-06T02:58:08.412Z,100271.33
2022-12-06T03:00:44.064Z,100271.50
2022-12-06T03:03:34.403Z,100263.88
2022-12-06T03:06:33.787Z,100257.22
2022-12-06T03:09:15.238Z,100254.48
2022-12-06T03:11:53.330Z,100254.36
2022-12-06T03:14:28.826Z,100257.31
2022-12-06T03:17:11.772Z,100251.67
2022-12-06T03:19:46.831Z,100250.33
2022-12-06T03:22:25.429Z,100245.72
2022-12-06T03:25:01.867Z,100248.77
2022-12-06T03:27:36.038Z,100247.85
2022-12-06T03:30:12.531Z,100250.48
2022-12-06T03:32:47.783Z,100246.06
2022-12-06T03:35:25.493Z,100241.23
2022-12-06T03:38:04.656Z,100234.21
2022-12-06T03:40:39.675Z,100233.40
2022-12-06T03:43:12.337Z,100227.73
2022-12-06T03:45:51.794Z,100236.79
2022-12-06T03:48:28.862Z,100233.95
2022-12-06T03:51:06.038Z,100227.76
2022-12-06T03:53:46.390Z,100228.31
2022-12-06T03:56:19.828Z,100229.19
2022-12-06T03:58:52.038Z,100225.56
2022-12-06T04:01:24.345Z,100226.94
2022-12-06T04:03:56.224Z,100231.89
2022-12-06T04:06:29.823Z,100233.19
2022-12-06T04:09:15.000Z,100229.14
2022-12-06T04:11:45.492Z,100229.05
2022-12-06T04:14:17.963Z,100218.48
2022-12-06T04:17:08.075Z,100217.73
2022-12-06T04:19:39.784Z,100214.48
2022-12-06T04:22:29.496Z,100211.42
2022-12-06T04:25:02.577Z,100202.66
2022-12-06T04:27:52.120Z,100202.57
2022-12-06T04:30:47.487Z,100194.84
2022-12-06T04:33:38.303Z,100191.66
2022-12-06T04:36:29.701Z,100188.68
2022-12-06T04:39:02.144Z,100182.89
2022-12-06T04:41:50.722Z,100177.93
2022-12-06T04:44:22.902Z,100175.99
2022-12-06T04:47:05.832Z,100176.14
2022-12-06T04:49:39.284Z,100171.91
2022-12-06T04:52:11.963Z,100166.95
2022-12-06T04:54:44.175Z,100164.54
2022-12-06T04:57:18.799Z,100167.92
2022-12-06T04:59:52.276Z,100164.16
2022-12-06T05:02:28.568Z,100159.61
2022-12-06T05:05:01.008Z,100148.77
2022-12-06T05:07:34.323Z,100146.87
2022-12-06T05:10:07.733Z,100150.66
2022-12-06T05:12:39.844Z,100153.30
2022-12-06T05:15:15.970Z,100152.81
2022-12-06T05:17:49.198Z,100153.63
2022-12-06T05:20:22.655Z,100149.65
2022-12-06T05:22:55.800Z,100144.86
2022-12-06T05:25:28.332Z,100146.46
2022-12-06T05:28:00.544Z,100144.22
2022-12-06T05:30:34.360Z,100144.11
2022-12-06T05:33:06.882Z,100140.35
2022-12-06T05:35:40.376Z,100136.27
2022-12-06T05:38:12.012Z,100133.61
2022-12-06T05:40:45.371Z,100135.70
2022-12-06T05:43:17.692Z,100135.08
2022-12-06T05:45:53.915Z,100131.27
2022-12-06T05:48:26.293Z,100129.14
2022-12-06T05:50:58.812Z,100131.89
2022-12-06T05:53:30.983Z,100131.73
2022-12-06T05:56:09.295Z,100133.88
2022-12-06T05:58:41.037Z,100136.86
2022-12-06T06:01:13.205Z,100142.02
2022-12-06T06:03:47.678Z,100130.13
2022-12-06T06:06:20.354Z,100124.39
2022-12-06T06:08:52.933Z,100120.11
2022-12-06T06:11:25.848Z,100122.34
2022-12-06T06:13:57.920Z,100124.70
2022-12-06T06:16:33.261Z,100123.64
2022-12-06T06:19:05.960Z,100121.77
2022-12-06T06:21:37.988Z,100123.17
2022-12-06T06:24:10.485Z,100120.46
2022-12-06T06:26:42.308Z,100124.90
2022-12-06T06:29:15.020Z,100122.71
2022-12-06T06:31:47.676Z,100120.35
2022-12-06T06:34:21.048Z,100120.02
2022-12-06T06:36:55.868Z,100120.91
2022-12-06T06:39:28.386Z,100118.38
2022-12-06T06:42:01.933Z,100119.52
2022-12-06T06:44:34.972Z,100114.94
2022-12-06T06:47:12.025Z,100111.77
2022-12-06T06:49:44.160Z,100112.02
2022-12-06T06:52:16.544Z,100103.98
2022-12-06T06:54:48.844Z,100103.50
2022-12-06T06:57:23.286Z,100094.17
2022-12-06T06:59:56.706Z,100090.33
2022-12-06T07:02:28.180Z,100093.20
2022-12-06T07:05:03.184Z,100095.21
2022-12-06T07:07:34.616Z,100095.82
2022-12-06T07:10:09.393Z,100093.77
2022-12-06T07:12:42.168Z,100091.09
2022-12-06T07:15:16.287Z,100088.69
2022-12-06T07:17:48.311Z,100090.23
2022-12-06T07:20:27.688Z,100095.40
2022-12-06T07:23:03.047Z,100092.83
2022-12-06T07:25:35.387Z,100097.23
2022-12-06T07:28:07.814Z,100089.38
2022-12-06T07:30:45.684Z,100087.92
2022-12-06T07:33:30.014Z,100085.80
2022-12-06T07:36:13.933Z,100082.95
2022-12-06T07:38:56.558Z,100080.54
2022-12-06T07:41:47.748Z,100083.26
2022-12-06T07:44:41.640Z,100085.25
2022-12-06T07:47:14.192Z,100087.40
2022-12-06T07:49:47.941Z,100089.39
2022-12-06T07:52:22.686Z,100092.77
2022-12-06T07:54:55.453Z,100093.30
2022-12-06T07:57:28.818Z,100092.45
2022-12-06T08:00:00.967Z,100092.20
2022-12-06T08:02:34.641Z,100098.70
2022-12-06T08:05:20.349Z,100101.40
2022-12-06T08:07:56.833Z,100099.11
2022-12-06T08:10:34.651Z,100097.89
2022-12-06T08:13:07.680Z,100092.05
2022-12-06T08:15:51.499Z,100094.89
2022-12-06T08:18:24.056Z,100091.59
2022-12-06T08:20:57.664Z,100093.08
2022-12-06T08:23:34.389Z,100096.04
2022-12-06T08:26:10.364Z,100096.45
2022-12-06T08:28:43.545Z,100097.66
2022-12-06T08:31:18.080Z,100097.67
2022-12-06T08:33:53.527Z,100094.27
2022-12-06T08:36:28.155Z,100093.40
2022-12-06T08:39:02.469Z,100090.36
2022-12-06T08:41:51.628Z,100087.66
2022-12-06T08:44:24.551Z,100084.77
2022-12-06T08:47:07.785Z,100082.70
2022-12-06T08:49:39.652Z,100077.83
2022-12-06T08:52:12.486Z,100079.73
2022-12-06T08:54:50.115Z,100078.33
2022-12-06T08:57:23.224Z,100073.65
2022-12-06T08:59:55.944Z,100071.84
2022-12-06T09:02:27.771Z,100071.14
2022-12-06T09:04:59.408Z,100076.27
2022-12-06T09:07:30.808Z,100073.21
2022-12-06T09:10:02.785Z,100068.10
2022-12-06T09:12:37.409Z,100061.45
2022-12-06T09:15:10.902Z,100058.23
2022-12-06T09:17:42.374Z,100056.64
2022-12-06T09:20:18.406Z,100055.01
2022-12-06T09:22:49.811Z,100049.11
2022-12-06T09:25:21.627Z,100043.23
2022-12-06T09:27:54.511Z,100039.94
2022-12-06T09:30:26.118Z,100037.11
2022-12-06T09:32:57.807Z,100039.13
2022-12-06T09:35:29.426Z,100033.75
2022-12-06T09:38:02.336Z,100029.67
2022-12-06T09:40:41.442Z,100028.52
2022-12-06T09:43:34.295Z,100024.54
2022-12-06T09:46:22.066Z,100023.15
2022-12-06T09:49:27.591Z,100014.80
2022-12-06T09:52:16.061Z,100011.42
2022-12-06T09:55:05.051Z,100003.55
2022-12-06T09:57:43.974Z,99998.30
2022-12-06T10:00:22.965Z,99999.88
2022-12-06T10:03:16.713Z,99999.02
2022-12-06T10:06:01.861Z,99994.73
2022-12-06T10:08:44.985Z,99993.38
2022-12-06T10:11:34.656Z,99990.50
2022-12-06T10:14:20.231Z,99988.20
2022-12-06T10:17:09.283Z,99980.63
2022-12-06T10:19:54.518Z,99977.97
2022-12-06T10:22:34.885Z,99973.92
2022-12-06T10:25:14.681Z,99966.71
2022-12-06T10:27:50.757Z,99961.67
2022-12-06T10:30:23.008Z,99952.53
2022-12-06T10:33:05.897Z,99946.76
2022-12-06T10:35:50.906Z,99939.30
2022-12-06T10:38:30.101Z,99936.68
2022-12-06T10:41:14.044Z,99928.65
2022-12-06T10:43:54.250Z,99925.79
2022-12-06T10:46:47.475Z,99923.17
2022-12-06T10:49:27.001Z,99927.27
2022-12-06T10:52:04.197Z,99918.61
2022-12-06T10:54:42.274Z,99920.20
2022-12-06T10:57:21.853Z,99916.45
2022-12-06T11:00:03.353Z,99915.22
2022-12-06T11:02:42.130Z,99915.14
2022-12-06T11:05:23.491Z,99910.11
2022-12-06T11:08:02.848Z,99907.36
2022-12-06T11:10:36.609Z,99897.33
2022-12-06T11:13:20.684Z,99901.12
2022-12-06T11:15:57.371Z,99896.08
2022-12-06T11:18:31.090Z,99894.16
2022-12-06T11:21:07.892Z,99890.42
2022-12-06T11:23:47.202Z,99891.31
2022-12-06T11:26:25.756Z,99889.67
2022-12-06T11:29:06.170Z,99887.81
2022-12-06T11:31:42.824Z,99885.39
2022-12-06T11:34:21.275Z,99880.89
2022-12-06T11:36:59.844Z,99881.92
2022-12-06T11:39:32.724Z,99877.50
2022-12-06T11:42:06.446Z,99873.73
2022-12-06T11:44:48.067Z,99873.73
2022-12-06T11:47:24.393Z,99873.48
2022-12-06T11:50:02.769Z,99872.09
2022-12-06T11:52:43.372Z,99872.37
2022-12-06T11:55:21.476Z,99871.65
2022-12-06T11:57:57.869Z,99869.78
2022-12-06T12:00:31.332Z,99869.33
2022-12-06T12:03:03.150Z,99860.55
2022-12-06T12:05:37.148Z,99866.66
2022-12-06T12:08:22.054Z,99866.45
2022-12-06T12:11:02.711Z,99863.67
2022-12-06T12:13:46.971Z,99853.87
2022-12-06T12:16:22.967Z,99851.70
2022-12-06T12:18:59.488Z,99854.20
2022-12-06T12:21:42.525Z,99846.78
2022-12-06T12:25:17.294Z,99847.16
2022-12-06T12:27:45.482Z,99845.09
2022-12-06T12:30:27.470Z,99841.34
2022-12-06T12:36:16.831Z,99837.17
2022-12-06T12:38:55.613Z,99831.33
2022-12-06T12:41:34.298Z,99834.90
2022-12-06T12:44:36.601Z,99837.46
2022-12-06T12:47:17.058Z,99836.45
2022-12-06T12:50:03.544Z,99832.45
2022-12-06T12:52:41.223Z,99826.02
2022-12-06T12:55:22.454Z,99821.43
2022-12-06T12:57:58.781Z,99818.81
2022-12-06T13:00:34.204Z,99813.86
2022-12-06T13:03:34.810Z,99812.94
2022-12-06T13:06:04.820Z,99803.41
2022-12-06T13:08:39.574Z,99807.65
2022-12-06T13:11:13.068Z,99806.77
2022-12-06T13:13:51.754Z,99806.40
2022-12-06T13:16:29.620Z,99799.16
2022-12-06T13:19:03.626Z,99798.48
2022-12-06T13:21:46.560Z,99797.25
2022-12-06T13:24:30.456Z,99797.04
2022-12-06T13:27:05.585Z,99798.60
2022-12-06T13:29:45.465Z,99793.41
2022-12-06T13:32:21.708Z,99793.48
2022-12-06T13:34:59.065Z,99798.83
2022-12-06T13:37:43.764Z,99795.66
2022-12-06T13:40:47.641Z,99792.92
2022-12-06T13:43:56.294Z,99792.17
2022-12-06T13:46:34.339Z,99793.73
2022-12-06T13:49:25.649Z,99793.30
2022-12-06T13:51:58.613Z,99786.48
2022-12-06T13:54:37.432Z,99787.27
2022-12-06T13:57:32.079Z,99789.70
2022-12-06T14:00:04.929Z,99787.34
2022-12-06T14:02:57.611Z,99784.07
2022-12-06T14:08:37.057Z,99777.20
2022-12-06T14:11:26.888Z,99774.95
2022-12-06T14:14:09.203Z,99772.67
2022-12-06T14:16:46.005Z,99769.30
2022-12-06T14:19:22.423Z,99769.98
2022-12-06T14:22:00.090Z,99770.79
2022-12-06T14:24:35.645Z,99768.89
2022-12-06T14:27:14.157Z,99766.25
2022-12-06T14:30:06.981Z,99764.69
2022-12-06T14:32:43.441Z,99768.06
2022-12-06T14:35:23.011Z,99769.77
2022-12-06T14:37:59.374Z,99778.45
2022-12-06T14:40:53.817Z,99773.09
2022-12-06T14:43:29.209Z,99775.60
2022-12-06T14:46:04.915Z,99770.79
2022-12-06T14:48:52.217Z,99772.58
2022-12-06T14:51:28.489Z,99770.95
2022-12-06T14:54:17.855Z,99770.86
2022-12-06T14:56:49.875Z,99770.31
2022-12-06T15:00:13.113Z,99765.16
2022-12-06T15:02:27.460Z,99767.16
2022-12-06T15:05:00.122Z,99763.39
2022-12-06T15:07:43.491Z,99760.52
2022-12-06T15:10:30.237Z,99764.55
2022-12-06T15:13:16.629Z,99765.61
2022-12-06T15:15:52.366Z,99764.69
2022-12-06T15:18:29.270Z,99765.16
2022-12-06T15:21:01.161Z,99757.30
2022-12-06T15:23:53.427Z,99760.30
2022-12-06T15:26:26.226Z,99759.52
2022-12-06T15:28:58.527Z,99753.98
2022-12-06T15:31:32.255Z,99752.02
2022-12-06T15:34:04.287Z,99746.03
2022-12-06T15:36:36.954Z,99744.34
2022-12-06T15:39:16.277Z,99739.10
2022-12-06T15:41:48.361Z,99741.48
2022-12-06T15:44:21.939Z,99740.52
2022-12-06T15:46:55.611Z,99737.52
2022-12-06T15:49:30.399Z,99730.54
2022-12-06T15:52:02.204Z,99726.95
2022-12-06T15:55:08.051Z,99725.60
2022-12-06T15:57:42.702Z,99718.50
2022-12-06T16:00:15.851Z,99717.35
2022-12-06T16:02:48.137Z,99718.77
2022-12-06T16:05:20.857Z,99714.44
2022-12-06T16:07:55.991Z,99716.70
2022-12-06T16:10:48.719Z,99719.77
2022-12-06T16:13:26.705Z,99721.63
2022-12-06T16:15:59.511Z,99720.21
2022-12-06T16:18:33.447Z,99716.13
2022-12-06T16:21:08.773Z,99715.45
2022-12-06T16:26:45.943Z,99707.80
2022-12-06T16:29:21.199Z,99706.61
2022-12-06T16:32:06.359Z,99706.70
2022-12-06T16:34:38.996Z,99705.70
2022-12-06T16:37:14.758Z,99704.69
2022-12-06T16:39:48.222Z,99704.48
2022-12-06T16:42:22.762Z,99699.89
2022-12-06T16:44:56.605Z,99702.83
2022-12-06T16:50:07.081Z,99694.05
2022-12-06T16:52:46.885Z,99693.75
2022-12-06T16:55:25.129Z,99693.25
2022-12-06T16:58:01.637Z,99686.77
2022-12-06T17:00:39.361Z,99687.81
2022-12-06T17:03:15.689Z,99679.64
2022-12-06T17:05:49.473Z,99684.15
2022-12-06T17:08:25.867Z,99683.09
2022-12-06T17:11:19.143Z,99681.36
2022-12-06T17:13:53.428Z,99682.66
2022-12-06T17:16:27.271Z,99684.81
2022-12-06T17:19:02.632Z,99679.03
2022-12-06T17:21:38.699Z,99674.18
2022-12-06T17:24:14.818Z,99679.55
2022-12-06T17:26:59.040Z,99678.64
2022-12-06T17:29:38.558Z,99677.30
2022-12-06T17:32:13.810Z,99679.56
2022-12-06T17:34:50.029Z,99675.98
2022-12-06T17:37:35.119Z,99674.33
2022-12-06T17:40:19.168Z,99665.96
2022-12-06T17:43:10.181Z,99670.92
2022-12-06T17:45:45.451Z,99671.46
2022-12-06T17:48:18.226Z,99675.28
2022-12-06T17:50:50.482Z,99669.66
2022-12-06T17:53:24.553Z,99671.23
2022-12-06T17:56:08.136Z,99672.67
2022-12-06T17:58:41.356Z,99670.76
2022-12-06T18:01:13.826Z,99669.02
2022-12-06T18:03:46.055Z,99672.63
2022-12-06T18:06:18.197Z,99671.16
2022-12-06T18:08:52.466Z,99669.25
2022-12-06T18:11:25.922Z,99667.35
2022-12-06T18:13:58.830Z,99660.78
2022-12-06T18:16:35.873Z,99659.11
2022-12-06T18:19:10.819Z,99654.61
2022-12-06T18:21:42.264Z,99655.25
2022-12-06T18:24:26.717Z,99658.73
2022-12-06T18:27:06.716Z,99652.70
2022-12-06T18:29:39.717Z,99650.73
2022-12-06T18:32:16.366Z,99645.98
2022-12-06T18:34:58.846Z,99644.51
2022-12-06T18:37:32.211Z,99640.70
2022-12-06T18:40:13.808Z,99640.99
2022-12-06T18:42:52.555Z,99636.88
2022-12-06T18:45:28.618Z,99632.05
2022-12-06T18:48:09.084Z,99639.38
2022-12-06T18:50:59.065Z,99638.84
2022-12-06T18:53:39.159Z,99641.33
2022-12-06T18:56:15.459Z,99642.61
2022-12-06T18:58:49.420Z,99641.04
2022-12-06T19:01:27.470Z,99635.20
2022-12-06T19:04:03.962Z,99634.65
2022-12-06T19:06:39.012Z,99636.17
2022-12-06T19:09:25.086Z,99637.37
2022-12-06T19:12:03.600Z,99640.02
2022-12-06T19:14:38.620Z,99638.12
2022-12-06T19:17:14.921Z,99642.71
2022-12-06T19:19:51.839Z,99639.05
2022-12-06T19:22:27.672Z,99636.15
2022-12-06T19:25:17.474Z,99631.89
2022-12-06T19:27:53.564Z,99630.33
2022-12-06T19:30:32.758Z,99632.20
2022-12-06T19:33:07.671Z,99628.51
2022-12-06T19:35:43.343Z,99629.95
2022-12-06T19:38:20.796Z,99626.61
2022-12-06T19:40:58.354Z,99622.15
2022-12-06T19:43:51.418Z,99618.90
2022-12-06T19:46:26.914Z,99615.98
2022-12-06T19:49:09.281Z,99613.13
2022-12-06T19:51:47.267Z,99611.20
2022-12-06T19:54:30.790Z,99610.24
2022-12-06T19:57:08.591Z,99607.98
2022-12-06T19:59:48.663Z,99607.65
2022-12-06T20:02:27.607Z,99604.57
2022-12-06T20:05:02.153Z,99602.70
2022-12-06T20:07:36.264Z,99601.45
2022-12-06T20:10:14.363Z,99605.04
2022-12-06T20:12:50.153Z,99602.94
2022-12-06T20:15:26.286Z,99602.70
2022-12-06T20:18:00.035Z,99604.54
2022-12-06T20:20:33.240Z,99601.35
2022-12-06T20:23:10.464Z,99600.39
2022-12-06T20:28:37.341Z,99598.15
2022-12-06T20:31:23.352Z,99591.09
2022-12-06T20:33:59.552Z,99589.79
2022-12-06T20:36:38.827Z,99585.81
2022-12-06T20:39:21.940Z,99586.34
2022-12-06T20:41:57.460Z,99585.08
2022-12-06T20:44:35.824Z,99582.79
2022-12-06T20:47:12.235Z,99575.14
2022-12-06T20:49:46.792Z,99576.93
2022-12-06T20:52:21.751Z,99576.51
2022-12-06T20:54:59.905Z,99574.43
2022-12-06T20:57:33.511Z,99573.90
2022-12-06T21:00:12.178Z,99571.42
2022-12-06T21:02:46.098Z,99571.20
2022-12-06T21:05:21.230Z,99568.10
2022-12-06T21:07:53.796Z,99565.81
2022-12-06T21:10:26.043Z,99564.21
2022-12-06T21:13:04.317Z,99563.46
2022-12-06T21:15:38.385Z,99553.73
2022-12-06T21:18:10.676Z,99557.09
2022-12-06T21:20:43.029Z,99552.95
2022-12-06T21:23:15.818Z,99555.98
2022-12-06T21:25:48.636Z,99556.20
2022-12-06T21:28:24.871Z,99557.52
2022-12-06T21:30:57.415Z,99557.42
2022-12-06T21:33:29.774Z,99556.80
2022-12-06T21:36:05.694Z,99555.09
2022-12-06T21:38:37.401Z,99560.64
2022-12-06T21:41:14.034Z,99557.92
2022-12-06T21:43:45.849Z,99561.03
2022-12-06T21:46:20.722Z,99552.62
2022-12-06T21:48:59.328Z,99557.30
2022-12-06T21:51:33.449Z,99559.27
2022-12-06T21:57:01.210Z,99567.50
2022-12-06T21:59:33.564Z,99567.89
2022-12-06T22:02:05.668Z,99563.23
2022-12-06T22:04:37.200Z,99563.75
2022-12-06T22:07:08.868Z,99561.45
2022-12-06T22:09:40.520Z,99556.96
2022-12-06T22:12:15.219Z,99556.45
2022-12-06T22:14:48.694Z,99554.24
2022-12-06T22:17:20.336Z,99552.36
2022-12-06T22:19:53.457Z,99548.54
2022-12-06T22:22:25.149Z,99550.83
2022-12-06T22:24:56.824Z,99551.23
2022-12-06T22:27:28.597Z,99546.83
2022-12-06T22:30:01.634Z,99555.09
2022-12-06T22:32:39.249Z,99555.64
2022-12-06T22:35:20.838Z,99554.12
2022-12-06T22:37:55.909Z,99552.01
2022-12-06T22:40:27.486Z,99553.33
2022-12-06T22:42:59.001Z,99553.39
2022-12-06T22:45:30.627Z,99547.83
2022-12-06T22:48:03.623Z,99549.52
2022-12-06T22:50:35.552Z,99544.91
2022-12-06T22:53:07.184Z,99541.45
2022-12-06T22:55:39.005Z,99543.85
2022-12-06T22:58:10.487Z,99551.72
2022-12-06T23:00:42.463Z,99545.15
2022-12-06T23:03:14.318Z,99544.91
2022-12-06T23:05:50.892Z,99541.59
2022-12-06T23:08:22.751Z,99539.81
2022-12-06T23:11:02.488Z,99542.43
2022-12-06T23:13:37.637Z,99539.70
2022-12-06T23:16:12.397Z,99544.16
2022-12-06T23:18:42.775Z,99541.58
2022-12-06T23:21:24.965Z,99539.85
2022-12-06T23:23:59.916Z,99539.93
2022-12-06T23:26:34.308Z,99535.69
2022-12-06T23:29:06.926Z,99533.33
2022-12-06T23:31:41.211Z,99531.74
2022-12-06T23:34:20.924Z,99525.77
2022-12-06T23:36:53.176Z,99528.83
2022-12-06T23:39:26.441Z,99528.58
2022-12-06T23:41:59.337Z,99529.25
2022-12-06T23:44:39.836Z,99530.52
2022-12-06T23:47:33.984Z,99529.39
2022-12-06T23:50:33.214Z,99525.01
2022-12-06T23:53:33.239Z,99521.25
2022-12-06T23:56:11.265Z,99527.67
2022-12-06T23:59:03.729Z,99524.20
